createdAt,value
2022-07-26T00:03:04.566Z,2.50
2022-07-26T00:06:30.907Z,2.40
2022-07-26T00:09:57.217Z,2.10
2022-07-26T00:13:23.522Z,2.95
2022-07-26T00:16:51.658Z,2.17
2022-07-26T00:20:17.876Z,2.05
2022-07-26T00:23:44.205Z,2.03
2022-07-26T00:27:10.464Z,2.42
2022-07-26T00:30:36.844Z,2.00
2022-07-26T00:34:04.551Z,1.90
2022-07-26T00:37:30.815Z,1.60
2022-07-26T00:40:57.126Z,1.58
2022-07-26T00:44:23.424Z,1.60
2022-07-26T00:47:50.303Z,1.77
2022-07-26T00:51:18.581Z,1.83
2022-07-26T00:54:45.859Z,1.73
2022-07-26T00:58:13.494Z,1.60
2022-07-26T01:01:39.851Z,1.63
2022-07-26T01:05:07.190Z,1.70
2022-07-26T01:08:35.161Z,2.03
2022-07-26T01:12:00.811Z,2.08
2022-07-26T01:14:34.454Z,1.60
2022-07-26T01:18:00.690Z,1.77
2022-07-26T01:21:30.827Z,1.80
2022-07-26T01:23:58.615Z,1.60
2022-07-26T01:26:26.346Z,1.83
2022-07-26T01:28:54.150Z,1.40
2022-07-26T01:31:21.929Z,2.00
2022-07-26T01:33:50.539Z,1.50
2022-07-26T01:36:18.409Z,1.60
2022-07-26T01:38:47.545Z,1.73
2022-07-26T01:41:15.653Z,1.50
2022-07-26T01:43:43.848Z,1.55
2022-07-26T01:46:13.600Z,1.58
2022-07-26T01:48:41.678Z,1.88
2022-07-26T01:51:09.421Z,1.63
2022-07-26T01:53:37.281Z,1.58
2022-07-26T01:56:07.221Z,1.70
2022-07-26T01:58:35.001Z,1.75
2022-07-26T02:01:02.719Z,1.80
2022-07-26T02:03:30.533Z,1.52
2022-07-26T02:05:58.300Z,1.98
2022-07-26T02:08:26.190Z,1.83
2022-07-26T02:11:04.032Z,1.70
2022-07-26T02:13:35.644Z,1.60
2022-07-26T02:16:04.481Z,1.67
2022-07-26T02:18:32.276Z,1.70
2022-07-26T02:21:00.666Z,1.83
2022-07-26T02:23:29.385Z,1.65
2022-07-26T02:25:57.427Z,1.98
2022-07-26T02:28:25.266Z,1.60
2022-07-26T02:30:54.423Z,1.90
2022-07-26T02:33:22.177Z,1.95
2022-07-26T02:35:49.912Z,1.60
2022-07-26T02:38:18.117Z,1.85
2022-07-26T02:40:46.084Z,1.80
2022-07-26T02:43:13.868Z,1.60
2022-07-26T02:45:41.589Z,2.08
2022-07-26T02:48:10.657Z,1.90
2022-07-26T02:50:38.941Z,1.73
2022-07-26T02:53:07.386Z,1.48
2022-07-26T02:55:35.167Z,1.65
2022-07-26T02:58:02.961Z,1.50
2022-07-26T03:00:30.727Z,1.85
2022-07-26T03:02:58.961Z,1.55
2022-07-26T03:05:28.309Z,1.42
2022-07-26T03:07:56.062Z,1.42
2022-07-26T03:10:23.760Z,1.30
2022-07-26T03:12:51.426Z,1.80
2022-07-26T03:15:19.193Z,1.40
2022-07-26T03:17:46.916Z,1.73
2022-07-26T03:20:14.879Z,1.40
2022-07-26T03:22:44.270Z,1.40
2022-07-26T03:25:12.086Z,1.60
2022-07-26T03:27:39.917Z,1.80
2022-07-26T03:30:09.401Z,1.60
2022-07-26T03:32:37.078Z,1.50
2022-07-26T03:35:05.579Z,1.50
2022-07-26T03:37:44.973Z,1.50
2022-07-26T03:40:16.269Z,1.63
2022-07-26T03:42:44.147Z,1.30
2022-07-26T03:45:13.398Z,1.30
2022-07-26T03:47:41.167Z,1.77
2022-07-26T03:50:09.603Z,1.50
2022-07-26T03:52:37.335Z,1.50
2022-07-26T03:55:26.477Z,1.67
2022-07-26T03:57:54.529Z,1.40
2022-07-26T04:00:22.360Z,1.20
2022-07-26T04:02:50.183Z,1.30
2022-07-26T04:05:23.522Z,1.23
2022-07-26T04:07:53.865Z,1.50
2022-07-26T04:10:22.283Z,1.50
2022-07-26T04:12:50.416Z,1.20
2022-07-26T04:15:21.240Z,1.63
2022-07-26T04:17:49.429Z,1.13
2022-07-26T04:20:17.506Z,1.10
2022-07-26T04:22:45.982Z,1.20
2022-07-26T04:25:13.915Z,1.60
2022-07-26T04:27:41.630Z,1.10
2022-07-26T04:30:15.063Z,1.20
2022-07-26T04:32:45.843Z,1.20
2022-07-26T04:35:15.340Z,1.35
2022-07-26T04:37:44.713Z,1.08
2022-07-26T04:40:16.446Z,1.25
2022-07-26T04:42:44.535Z,1.40
2022-07-26T04:45:13.802Z,1.52
2022-07-26T04:47:44.353Z,1.55
2022-07-26T04:50:12.491Z,1.35
2022-07-26T04:52:41.301Z,1.15
2022-07-26T04:55:11.178Z,1.35
2022-07-26T04:57:39.309Z,1.10
2022-07-26T05:00:26.725Z,1.67
2022-07-26T05:02:58.725Z,1.95
2022-07-26T05:05:33.949Z,1.30
2022-07-26T05:08:03.690Z,1.40
2022-07-26T05:10:35.131Z,1.50
2022-07-26T05:13:04.908Z,1.20
2022-07-26T05:15:35.505Z,1.20
2022-07-26T05:18:06.714Z,1.20
2022-07-26T05:20:35.984Z,1.40
2022-07-26T05:23:04.002Z,1.25
2022-07-26T05:25:31.857Z,1.42
2022-07-26T05:27:59.747Z,1.85
2022-07-26T05:30:27.931Z,1.38
2022-07-26T05:32:55.712Z,1.45
2022-07-26T05:35:24.749Z,1.55
2022-07-26T05:37:52.556Z,1.40
2022-07-26T05:40:20.391Z,2.10
2022-07-26T05:42:48.114Z,2.17
2022-07-26T05:45:15.985Z,1.95
2022-07-26T05:47:43.740Z,1.63
2022-07-26T05:50:11.609Z,1.80
2022-07-26T05:52:40.740Z,1.90
2022-07-26T05:55:09.772Z,2.03
2022-07-26T05:57:37.570Z,2.13
2022-07-26T06:00:06.796Z,1.80
2022-07-26T06:02:35.822Z,1.40
2022-07-26T06:05:03.622Z,1.45
2022-07-26T06:07:31.399Z,1.50
2022-07-26T06:10:00.657Z,1.55
2022-07-26T06:12:28.480Z,1.30
2022-07-26T06:14:56.304Z,1.27
2022-07-26T06:17:24.090Z,1.60
2022-07-26T06:19:51.883Z,1.67
2022-07-26T06:22:19.602Z,1.48
2022-07-26T06:24:47.332Z,1.65
2022-07-26T06:27:16.487Z,1.73
2022-07-26T06:29:44.230Z,1.60
2022-07-26T06:32:11.935Z,1.63
2022-07-26T06:34:39.696Z,1.35
2022-07-26T06:37:07.449Z,1.50
2022-07-26T06:39:35.330Z,1.42
2022-07-26T06:42:03.321Z,1.73
2022-07-26T06:44:32.492Z,1.75
2022-07-26T06:47:00.237Z,1.48
2022-07-26T06:49:28.056Z,1.42
2022-07-26T06:51:57.633Z,1.25
2022-07-26T06:54:25.327Z,1.50
2022-07-26T06:56:53.035Z,1.60
2022-07-26T06:59:20.789Z,1.40
2022-07-26T07:01:58.167Z,1.23
2022-07-26T07:04:28.898Z,1.27
2022-07-26T07:06:57.465Z,1.45
2022-07-26T07:09:25.692Z,1.30
2022-07-26T07:11:57.404Z,1.10
2022-07-26T07:14:28.618Z,1.50
2022-07-26T07:16:58.457Z,1.00
2022-07-26T07:19:26.940Z,1.20
2022-07-26T07:21:54.706Z,1.00
2022-07-26T07:24:23.463Z,1.00
2022-07-26T07:26:51.285Z,1.25
2022-07-26T07:29:20.272Z,0.90
2022-07-26T07:31:49.864Z,0.80
2022-07-26T07:34:22.759Z,0.90
2022-07-26T07:36:52.494Z,0.80
2022-07-26T07:39:21.173Z,0.70
2022-07-26T07:41:49.785Z,0.50
2022-07-26T07:44:17.796Z,0.70
2022-07-26T07:46:45.655Z,0.60
2022-07-26T07:49:13.897Z,0.70
2022-07-26T07:51:43.393Z,0.65
2022-07-26T07:54:15.905Z,0.60
2022-07-26T07:56:44.042Z,0.63
2022-07-26T07:59:12.865Z,0.60
2022-07-26T08:01:40.973Z,0.70
2022-07-26T08:04:09.581Z,0.70
2022-07-26T08:06:37.479Z,0.55
2022-07-26T08:09:13.213Z,0.60
2022-07-26T08:11:41.902Z,0.63
2022-07-26T08:14:10.805Z,0.57
2022-07-26T08:16:38.975Z,0.80
2022-07-26T08:19:08.898Z,0.90
2022-07-26T08:21:37.151Z,0.70
2022-07-26T08:24:05.722Z,0.60
2022-07-26T08:26:34.998Z,0.80
2022-07-26T08:29:02.776Z,0.60
2022-07-26T08:31:30.792Z,0.70
2022-07-26T08:33:59.040Z,0.60
2022-07-26T08:36:32.259Z,0.57
2022-07-26T08:39:01.191Z,0.73
2022-07-26T08:41:29.421Z,0.80
2022-07-26T08:44:06.390Z,0.63
2022-07-26T08:46:36.752Z,0.63
2022-07-26T08:49:04.851Z,0.55
2022-07-26T08:51:33.303Z,0.63
2022-07-26T08:54:05.864Z,0.60
2022-07-26T08:56:35.710Z,0.70
2022-07-26T08:59:19.618Z,0.73
2022-07-26T09:01:56.631Z,0.68
2022-07-26T09:04:37.562Z,0.80
2022-07-26T09:07:12.097Z,0.70
2022-07-26T09:09:56.721Z,0.70
2022-07-26T09:12:26.219Z,0.60
2022-07-26T09:14:56.166Z,0.77
2022-07-26T09:17:38.112Z,0.70
2022-07-26T09:20:09.385Z,0.80
2022-07-26T09:22:37.817Z,0.70
2022-07-26T09:25:21.728Z,0.70
2022-07-26T09:27:50.013Z,0.75
2022-07-26T09:30:21.047Z,0.50
2022-07-26T09:32:59.195Z,0.70
2022-07-26T09:35:50.731Z,0.70
2022-07-26T09:38:17.681Z,0.80
2022-07-26T09:40:50.521Z,0.63
2022-07-26T09:43:24.003Z,0.75
2022-07-26T09:46:06.248Z,0.80
2022-07-26T09:49:06.881Z,1.23
2022-07-26T09:51:47.960Z,0.70
2022-07-26T09:54:20.837Z,0.70
2022-07-26T09:56:50.351Z,0.70
2022-07-26T09:59:20.286Z,0.57
2022-07-26T10:01:50.491Z,0.70
2022-07-26T10:04:19.373Z,0.90
2022-07-26T10:06:47.739Z,0.70
2022-07-26T10:09:16.380Z,0.80
2022-07-26T10:11:48.781Z,0.85
2022-07-26T10:14:36.151Z,0.80
2022-07-26T10:17:46.086Z,0.80
2022-07-26T10:20:48.286Z,0.90
2022-07-26T10:23:43.427Z,1.25
2022-07-26T10:26:13.861Z,1.02
2022-07-26T10:28:42.908Z,0.80
2022-07-26T10:31:32.331Z,0.90
2022-07-26T10:34:02.514Z,0.75
2022-07-26T10:36:35.871Z,0.70
2022-07-26T10:39:13.227Z,1.05
2022-07-26T10:41:44.307Z,0.68
2022-07-26T10:44:28.478Z,0.70
2022-07-26T10:47:12.787Z,1.00
2022-07-26T10:49:43.751Z,0.90
2022-07-26T10:52:17.995Z,0.80
2022-07-26T10:55:17.144Z,0.85
2022-07-26T10:57:47.161Z,0.60
2022-07-26T11:00:26.991Z,0.70
2022-07-26T11:02:59.975Z,0.70
2022-07-26T11:05:32.163Z,1.85
2022-07-26T11:08:10.291Z,0.60
2022-07-26T11:10:42.224Z,0.70
2022-07-26T11:13:18.056Z,0.77
2022-07-26T11:15:49.610Z,0.82
2022-07-26T11:18:22.252Z,0.90
2022-07-26T11:20:55.580Z,0.60
2022-07-26T11:23:30.033Z,0.57
2022-07-26T11:26:05.788Z,1.20
2022-07-26T11:28:57.677Z,0.70
2022-07-26T11:31:50.924Z,1.00
2022-07-26T11:34:30.782Z,1.52
2022-07-26T11:37:01.776Z,0.50
2022-07-26T11:39:32.202Z,0.35
2022-07-26T11:42:02.607Z,0.50
2022-07-26T11:44:31.155Z,0.77
2022-07-26T11:46:59.325Z,0.50
2022-07-26T11:50:00.633Z,0.50
2022-07-26T11:52:25.022Z,0.88
2022-07-26T11:54:54.561Z,0.57
2022-07-26T11:57:22.404Z,0.52
2022-07-26T11:59:51.142Z,0.60
2022-07-26T12:02:21.367Z,1.13
2022-07-26T12:04:49.360Z,0.70
2022-07-26T12:07:21.501Z,0.40
2022-07-26T12:09:51.401Z,0.50
2022-07-26T12:12:23.962Z,0.60
2022-07-26T12:14:59.515Z,0.50
2022-07-26T12:17:34.615Z,0.40
2022-07-26T12:20:13.043Z,0.47
2022-07-26T12:22:42.649Z,0.40
2022-07-26T12:25:10.753Z,0.60
2022-07-26T12:27:46.880Z,0.40
2022-07-26T12:30:17.260Z,0.60
2022-07-26T12:32:46.423Z,0.40
2022-07-26T12:35:16.098Z,0.50
2022-07-26T12:37:53.584Z,0.40
2022-07-26T12:40:23.410Z,0.50
2022-07-26T12:43:02.124Z,0.40
2022-07-26T12:45:32.539Z,0.40
2022-07-26T12:48:01.821Z,0.47
2022-07-26T12:50:33.673Z,0.45
2022-07-26T12:53:05.631Z,0.60
2022-07-26T12:55:34.465Z,0.40
2022-07-26T12:58:02.409Z,0.50
2022-07-26T13:00:30.411Z,0.43
2022-07-26T13:02:58.775Z,0.32
2022-07-26T13:05:26.933Z,0.40
2022-07-26T13:07:55.508Z,0.35
2022-07-26T13:10:34.257Z,0.50
2022-07-26T13:13:03.608Z,0.40
2022-07-26T13:15:35.205Z,0.57
2022-07-26T13:18:08.094Z,0.35
2022-07-26T13:20:38.155Z,0.50
2022-07-26T13:23:06.028Z,0.50
2022-07-26T13:25:39.608Z,0.50
2022-07-26T13:28:08.459Z,0.47
2022-07-26T13:30:37.573Z,0.60
2022-07-26T13:33:05.779Z,0.38
2022-07-26T13:35:33.549Z,0.50
2022-07-26T13:38:01.344Z,0.35
2022-07-26T13:40:31.757Z,0.73
2022-07-26T13:43:01.491Z,0.30
2022-07-26T13:45:29.874Z,0.40
2022-07-26T13:47:59.630Z,0.50
2022-07-26T13:50:28.163Z,0.50
2022-07-26T13:52:56.478Z,0.50
2022-07-26T13:55:25.488Z,0.40
2022-07-26T13:57:57.180Z,0.40
2022-07-26T14:00:28.773Z,0.40
2022-07-26T14:02:59.244Z,0.40
2022-07-26T14:05:28.339Z,0.43
2022-07-26T14:07:56.734Z,0.38
2022-07-26T14:10:25.050Z,0.40
2022-07-26T14:12:53.454Z,0.40
2022-07-26T14:15:23.327Z,0.30
2022-07-26T14:17:53.002Z,0.38
2022-07-26T14:20:21.262Z,0.32
2022-07-26T14:22:53.301Z,0.35
2022-07-26T14:25:21.703Z,0.50
2022-07-26T14:27:49.777Z,0.40
2022-07-26T14:30:17.850Z,0.40
2022-07-26T14:32:45.717Z,0.30
2022-07-26T14:35:16.509Z,0.30
2022-07-26T14:37:45.907Z,0.30
2022-07-26T14:40:15.615Z,0.50
2022-07-26T14:42:44.077Z,0.40
2022-07-26T14:45:12.207Z,0.30
2022-07-26T14:47:40.436Z,0.30
2022-07-26T14:50:09.386Z,0.30
2022-07-26T14:52:40.254Z,0.40
2022-07-26T14:55:09.371Z,0.30
2022-07-26T14:57:39.915Z,0.40
2022-07-26T15:00:10.692Z,0.30
2022-07-26T15:02:40.140Z,0.40
2022-07-26T15:05:08.542Z,0.38
2022-07-26T15:07:36.588Z,0.30
2022-07-26T15:10:08.991Z,0.30
2022-07-26T15:12:37.062Z,0.25
2022-07-26T15:15:05.461Z,0.25
2022-07-26T15:17:33.662Z,0.30
2022-07-26T15:20:01.461Z,0.20
2022-07-26T15:22:29.505Z,0.40
2022-07-26T15:24:57.306Z,0.30
2022-07-26T15:27:26.635Z,0.30
2022-07-26T15:29:58.226Z,0.30
2022-07-26T15:32:30.470Z,0.28
2022-07-26T15:34:58.346Z,0.20
2022-07-26T15:37:26.341Z,0.20
2022-07-26T15:39:54.231Z,0.30
2022-07-26T15:42:23.212Z,0.30
2022-07-26T15:44:52.700Z,0.30
2022-07-26T15:47:52.211Z,0.20
2022-07-26T15:50:11.366Z,0.40
2022-07-26T15:52:42.244Z,0.40
2022-07-26T15:55:11.560Z,0.40
2022-07-26T15:57:40.018Z,0.30
2022-07-26T16:00:12.464Z,0.38
2022-07-26T16:02:41.550Z,0.30
2022-07-26T16:05:10.449Z,0.40
2022-07-26T16:07:39.002Z,0.30
2022-07-26T16:10:07.858Z,0.35
2022-07-26T16:12:36.062Z,0.40
2022-07-26T16:15:03.915Z,1.25
2022-07-26T16:17:33.407Z,0.63
2022-07-26T16:20:01.193Z,3.33
2022-07-26T16:22:29.001Z,0.40
2022-07-26T16:24:56.876Z,0.68
2022-07-26T16:27:24.674Z,0.50
2022-07-26T16:29:52.687Z,0.40
2022-07-26T16:32:21.300Z,0.40
2022-07-26T16:34:50.837Z,0.60
2022-07-26T16:37:18.630Z,0.40
2022-07-26T16:39:46.382Z,0.43
2022-07-26T16:42:14.146Z,0.50
2022-07-26T16:44:42.027Z,0.45
2022-07-26T16:47:09.909Z,0.40
2022-07-26T16:49:37.670Z,0.40
2022-07-26T16:52:07.541Z,0.30
2022-07-26T16:54:35.515Z,0.47
2022-07-26T16:57:03.434Z,0.50
2022-07-26T16:59:31.159Z,0.40
2022-07-26T17:01:59.707Z,0.40
2022-07-26T17:04:30.973Z,0.30
2022-07-26T17:07:23.481Z,0.40
2022-07-26T17:09:48.285Z,0.40
2022-07-26T17:12:16.242Z,0.40
2022-07-26T17:14:44.123Z,0.30
2022-07-26T17:17:12.001Z,0.50
2022-07-26T17:19:40.026Z,0.50
2022-07-26T17:22:08.012Z,0.40
2022-07-26T17:24:36.050Z,0.43
2022-07-26T17:27:05.655Z,0.30
2022-07-26T17:29:33.570Z,0.40
2022-07-26T17:32:01.315Z,0.40
2022-07-26T17:34:29.252Z,0.43
2022-07-26T17:36:58.424Z,0.60
2022-07-26T17:39:40.353Z,0.60
2022-07-26T17:42:15.683Z,0.60
2022-07-26T17:44:43.445Z,0.63
2022-07-26T17:47:27.517Z,0.65
2022-07-26T17:50:08.927Z,0.65
2022-07-26T17:52:46.208Z,0.40
2022-07-26T17:55:13.981Z,0.60
2022-07-26T17:57:43.206Z,0.50
2022-07-26T18:00:12.175Z,0.50
2022-07-26T18:02:40.019Z,0.60
2022-07-26T18:05:08.253Z,0.60
2022-07-26T18:07:36.029Z,0.57
2022-07-26T18:10:04.463Z,0.50
2022-07-26T18:12:32.415Z,0.60
2022-07-26T18:15:01.616Z,0.60
2022-07-26T18:17:29.409Z,0.50
2022-07-26T18:19:57.206Z,0.60
2022-07-26T18:22:25.368Z,0.50
2022-07-26T18:24:53.306Z,0.70
2022-07-26T18:27:22.255Z,0.60
2022-07-26T18:29:50.576Z,0.55
2022-07-26T18:32:19.712Z,0.45
2022-07-26T18:34:52.277Z,0.52
2022-07-26T18:37:21.057Z,0.50
2022-07-26T18:39:53.999Z,0.45
2022-07-26T18:42:24.954Z,0.50
2022-07-26T18:44:52.771Z,0.40
2022-07-26T18:47:22.091Z,0.60
2022-07-26T18:49:50.147Z,0.45
2022-07-26T18:52:28.630Z,0.50
2022-07-26T18:55:00.895Z,0.50
2022-07-26T18:57:28.813Z,0.60
2022-07-26T18:59:56.587Z,0.68
2022-07-26T19:02:25.774Z,0.60
2022-07-26T19:04:53.716Z,0.60
2022-07-26T19:07:21.589Z,0.50
2022-07-26T19:09:49.364Z,0.50
2022-07-26T19:12:18.365Z,0.50
2022-07-26T19:14:46.232Z,0.60
2022-07-26T19:17:14.011Z,0.60
2022-07-26T19:19:43.927Z,0.50
2022-07-26T19:22:11.756Z,1.58
2022-07-26T19:24:39.652Z,0.90
2022-07-26T19:27:09.509Z,0.65
2022-07-26T19:29:37.606Z,0.60
2022-07-26T19:32:06.203Z,0.70
2022-07-26T19:34:34.228Z,0.70
2022-07-26T19:37:03.814Z,0.60
2022-07-26T19:39:31.791Z,0.57
2022-07-26T19:42:00.939Z,0.50
2022-07-26T19:44:28.835Z,0.60
2022-07-26T19:46:57.916Z,0.60
2022-07-26T19:49:26.356Z,0.57
2022-07-26T19:51:55.433Z,0.50
2022-07-26T19:54:24.758Z,0.60
2022-07-26T19:56:52.900Z,0.70
2022-07-26T19:59:23.707Z,0.60
2022-07-26T20:01:55.144Z,0.50
2022-07-26T20:04:26.453Z,0.70
2022-07-26T20:06:55.235Z,0.70
2022-07-26T20:09:24.763Z,0.60
2022-07-26T20:11:52.693Z,0.70
2022-07-26T20:14:21.670Z,0.60
2022-07-26T20:16:54.239Z,0.60
2022-07-26T20:19:24.773Z,0.50
2022-07-26T20:21:52.807Z,0.65
2022-07-26T20:24:20.768Z,0.60
2022-07-26T20:26:50.079Z,0.60
2022-07-26T20:29:18.443Z,0.52
2022-07-26T20:31:46.691Z,0.80
2022-07-26T20:34:14.947Z,0.60
2022-07-26T20:36:43.212Z,0.60
2022-07-26T20:39:11.583Z,0.80
2022-07-26T20:41:40.033Z,0.73
2022-07-26T20:44:09.663Z,0.80
2022-07-26T20:46:40.175Z,0.70
2022-07-26T20:49:09.284Z,0.80
2022-07-26T20:51:37.932Z,0.60
2022-07-26T20:54:06.247Z,0.70
2022-07-26T20:56:34.120Z,0.60
2022-07-26T20:59:03.081Z,0.70
2022-07-26T21:01:32.989Z,0.80
2022-07-26T21:04:00.974Z,0.70
2022-07-26T21:06:29.697Z,0.80
2022-07-26T21:09:00.182Z,0.60
2022-07-26T21:11:36.782Z,0.65
2022-07-26T21:14:04.844Z,0.75
2022-07-26T21:16:34.167Z,0.63
2022-07-26T21:19:03.165Z,0.60
2022-07-26T21:21:31.149Z,0.60
2022-07-26T21:23:59.031Z,0.55
2022-07-26T21:26:27.000Z,0.60
2022-07-26T21:28:54.824Z,0.60
2022-07-26T21:31:22.618Z,0.60
2022-07-26T21:33:51.912Z,0.60
2022-07-26T21:36:19.859Z,0.60
2022-07-26T21:38:47.695Z,0.60
2022-07-26T21:41:15.725Z,0.70
2022-07-26T21:43:43.549Z,0.60
2022-07-26T21:46:12.970Z,0.60
2022-07-26T21:48:41.119Z,0.75
2022-07-26T21:51:10.237Z,0.73
2022-07-26T21:53:38.136Z,0.50
2022-07-26T21:56:06.695Z,0.70
2022-07-26T21:58:36.836Z,0.68
2022-07-26T22:01:06.837Z,0.70
2022-07-26T22:03:36.833Z,0.57
2022-07-26T22:06:05.252Z,0.60
2022-07-26T22:08:35.003Z,0.70
2022-07-26T22:11:03.121Z,0.60
2022-07-26T22:13:31.593Z,0.70
2022-07-26T22:15:59.644Z,0.95
2022-07-26T22:18:27.581Z,0.80
2022-07-26T22:20:55.899Z,0.80
2022-07-26T22:23:29.874Z,0.80
2022-07-26T22:25:59.962Z,0.85
2022-07-26T22:28:27.814Z,0.70
2022-07-26T22:30:55.682Z,0.70
2022-07-26T22:33:23.930Z,0.70
2022-07-26T22:35:52.340Z,0.70
2022-07-26T22:38:20.501Z,0.80
2022-07-26T22:40:48.381Z,0.60
2022-07-26T22:43:17.465Z,0.70
2022-07-26T22:45:45.385Z,0.70
2022-07-26T22:48:13.200Z,0.80
2022-07-26T22:50:41.062Z,0.80
2022-07-26T22:53:08.864Z,0.80
2022-07-26T22:55:36.878Z,0.88
2022-07-26T22:58:05.069Z,0.80
2022-07-26T23:00:34.371Z,0.85
2022-07-26T23:03:02.299Z,0.77
2022-07-26T23:05:45.574Z,0.93
2022-07-26T23:08:44.295Z,0.70
2022-07-26T23:11:02.683Z,0.90
2022-07-26T23:13:30.604Z,0.90
2022-07-26T23:16:01.314Z,0.80
2022-07-26T23:18:29.795Z,0.80
2022-07-26T23:20:57.622Z,0.80
2022-07-26T23:23:29.892Z,0.80
2022-07-26T23:25:59.090Z,0.70
2022-07-26T23:28:37.732Z,0.70
2022-07-26T23:31:11.981Z,1.00
2022-07-26T23:33:52.016Z,0.70
2022-07-26T23:36:26.608Z,0.77
2022-07-26T23:38:54.780Z,0.90
2022-07-26T23:41:22.675Z,0.75
2022-07-26T23:43:50.603Z,0.80
2022-07-26T23:46:19.761Z,0.80
2022-07-26T23:48:48.037Z,1.00
2022-07-26T23:51:16.063Z,0.90
2022-07-26T23:53:43.944Z,1.00
2022-07-26T23:56:11.741Z,1.20
2022-07-26T23:58:39.445Z,1.00
